< Cyclone 200601 2006 Season Cyclone 200606 >
Cyclone 200605 (CLARE)
General InformationTrack Information on Google MapsDetailed Wind InformationList of All Images || ResourceGoogle EarthGE AnimationAtom FeedGeoJSON
Detalied Best Track (Time Zone = UTC)
Year Month Day Hour Lat. Long. Pressure (hPa) Wind (kt) Class Image Chart
2006 1 6 06 -11.2 129.1 1002 20 2 Image --
2006 1 6 12 -11.3 127.9 1000 25 2 Image --
2006 1 6 18 -11.7 126.5 996 25 2 Image --
2006 1 7 00 -12.6 125.3 996 25 2 Image --
2006 1 7 06 -13.5 124.2 996 35 3 Image --
2006 1 7 12 -14.4 123.2 994 40 3 Image --
2006 1 7 18 -15.3 121.8 990 45 3 Image --
2006 1 8 00 -15.9 120.6 982 50 4 Image --
2006 1 8 06 -16.4 119.9 982 50 4 Image --
2006 1 8 12 -17.3 119.2 982 50 4 Image --
2006 1 8 18 -18.0 118.3 972 60 4 Image --
2006 1 8 21 -18.4 117.9 972 60 4 Image --
2006 1 9 00 -18.7 117.7 964 70 5 Image --
2006 1 9 03 -19.2 117.4 960 75 5 Image --
2006 1 9 06 -19.6 117.1 960 75 5 Image --
2006 1 9 09 -20.0 116.8 960 75 5 Image --
2006 1 9 12 -20.3 116.6 960 75 5 Image --
2006 1 9 15 -20.6 116.4 964 70 5 Image --
2006 1 9 18 -20.8 116.3 968 65 5 Image --
2006 1 9 21 -21.2 116.2 968 65 5 Image --
2006 1 10 00 -21.6 116.3 972 60 4 Image --
2006 1 10 03 -22.1 116.2 974 55 4 Image --
2006 1 10 06 -22.5 116.2 974 55 4 Image --
2006 1 10 09 -22.7 116.2 982 50 4 Image --
2006 1 10 12 -22.9 116.2 990 40 3 Image --
2006 1 10 15 -23.2 116.2 992 35 3 Image --
2006 1 10 18 -23.5 116.2 996 30 2 Image --
< Cyclone 200601 2006 Season Cyclone 200606 >

Help